createdAt,value
2017-11-19T00:00:30.836Z,3.76
2017-11-19T00:01:52.842Z,3.83
2017-11-19T00:03:14.835Z,3.78
2017-11-19T00:04:36.849Z,3.84
2017-11-19T00:05:58.905Z,3.78
2017-11-19T00:07:20.349Z,3.78
2017-11-19T00:08:42.329Z,3.75
2017-11-19T00:10:04.085Z,3.75
2017-11-19T00:11:26.363Z,3.79
2017-11-19T00:12:48.385Z,3.7
2017-11-19T00:14:10.407Z,3.76
2017-11-19T00:15:32.488Z,3.79
2017-11-19T00:16:54.319Z,3.84
2017-11-19T00:18:16.596Z,3.83
2017-11-19T00:19:38.387Z,3.79
2017-11-19T00:21:00.386Z,3.72
2017-11-19T00:22:22.230Z,3.76
2017-11-19T00:23:44.242Z,3.86
2017-11-19T00:25:05.957Z,3.79
2017-11-19T00:26:27.396Z,3.73
2017-11-19T00:27:49.096Z,3.72
2017-11-19T00:29:11.191Z,3.68
2017-11-19T00:30:32.988Z,3.69
2017-11-19T00:31:54.977Z,3.75
2017-11-19T00:33:17.239Z,3.66
2017-11-19T00:34:38.971Z,3.76
2017-11-19T00:36:01.247Z,3.62
2017-11-19T00:37:22.959Z,3.73
2017-11-19T00:38:45.038Z,3.66
2017-11-19T00:40:07.045Z,3.72
2017-11-19T00:41:28.508Z,3.58
2017-11-19T00:42:50.477Z,3.66
2017-11-19T00:44:12.467Z,3.58
2017-11-19T00:45:34.188Z,3.78
2017-11-19T00:46:56.174Z,3.62
2017-11-19T00:48:17.929Z,3.72
2017-11-19T00:49:40.237Z,3.69
2017-11-19T00:51:02.045Z,3.62
2017-11-19T00:52:23.766Z,3.55
2017-11-19T00:53:45.563Z,3.61
2017-11-19T00:55:07.307Z,3.58
2017-11-19T00:56:29.089Z,3.69
2017-11-19T00:57:50.887Z,3.72
2017-11-19T00:59:12.317Z,3.73
2017-11-19T01:00:34.150Z,3.87
2017-11-19T01:01:56.168Z,3.88
2017-11-19T01:03:18.198Z,4.04
2017-11-19T01:04:40.552Z,4.02
2017-11-19T01:06:02.805Z,4.16
2017-11-19T01:07:24.797Z,4.27
2017-11-19T01:08:46.797Z,4.3
2017-11-19T01:10:09.047Z,4.47
2017-11-19T01:11:30.211Z,4.65
2017-11-19T01:12:51.931Z,4.65
2017-11-19T01:14:13.649Z,4.78
2017-11-19T01:15:35.736Z,4.8
2017-11-19T01:16:57.575Z,4.88
2017-11-19T01:18:19.416Z,4.99
2017-11-19T01:19:40.868Z,4.94
2017-11-19T01:21:02.884Z,5.02
2017-11-19T01:22:24.874Z,5.03
2017-11-19T01:23:47.177Z,5.07
2017-11-19T01:25:08.345Z,5.13
2017-11-19T01:26:29.778Z,5.12
2017-11-19T01:27:51.237Z,5.2
2017-11-19T01:29:12.951Z,5.18
2017-11-19T01:30:34.278Z,5.27
2017-11-19T01:31:55.707Z,5.3
2017-11-19T01:33:17.433Z,5.3
2017-11-19T01:34:39.682Z,5.28
2017-11-19T01:36:01.650Z,5.25
2017-11-19T01:37:23.079Z,5.3
2017-11-19T01:38:44.825Z,5.21
2017-11-19T01:40:07.085Z,5.21
2017-11-19T01:41:28.606Z,5.1
2017-11-19T01:42:50.035Z,4.89
2017-11-19T01:44:12.304Z,4.85
2017-11-19T01:45:34.305Z,4.63
2017-11-19T01:46:55.773Z,4.65
2017-11-19T01:48:18.157Z,4.62
2017-11-19T01:49:39.887Z,4.55
2017-11-19T01:51:02.257Z,4.55
2017-11-19T01:52:23.690Z,4.55
2017-11-19T01:53:45.685Z,4.52
2017-11-19T01:55:07.405Z,4.51
2017-11-19T01:56:29.130Z,4.52
2017-11-19T01:57:50.857Z,4.32
2017-11-19T01:59:12.637Z,4.4
2017-11-19T02:00:34.612Z,4.33
2017-11-19T02:01:56.479Z,4.3
2017-11-19T02:03:18.284Z,4.34
2017-11-19T02:04:40.285Z,4.22
2017-11-19T02:06:02.562Z,4.22
2017-11-19T02:07:24.267Z,4.16
2017-11-19T02:08:46.245Z,4.2
2017-11-19T02:10:08.215Z,4.23
2017-11-19T02:11:29.917Z,4.11
2017-11-19T02:12:51.624Z,4.18
2017-11-19T02:14:14.096Z,4.16
2017-11-19T02:15:36.102Z,4.2
2017-11-19T02:16:57.816Z,4.18
2017-11-19T02:18:19.659Z,4.23
2017-11-19T02:19:41.926Z,4.15
2017-11-19T02:21:03.633Z,4.24
2017-11-19T02:22:25.095Z,4.18
2017-11-19T02:23:46.824Z,4.27
2017-11-19T02:25:07.999Z,4.18
2017-11-19T02:26:29.986Z,4.34
2017-11-19T02:27:52.027Z,4.32
2017-11-19T02:29:13.757Z,4.45
2017-11-19T02:30:35.781Z,4.44
2017-11-19T02:31:57.229Z,4.5
2017-11-19T02:33:19.499Z,4.62
2017-11-19T02:34:41.497Z,4.6
2017-11-19T02:36:03.484Z,4.78
2017-11-19T02:37:26.085Z,4.89
2017-11-19T02:38:47.918Z,4.85
2017-11-19T02:40:10.209Z,4.96
2017-11-19T02:41:32.216Z,4.86
2017-11-19T02:42:54.513Z,5.06
2017-11-19T02:44:16.366Z,5.1
2017-11-19T02:45:38.106Z,5.17
2017-11-19T02:47:00.086Z,5.15
2017-11-19T02:48:22.056Z,5.18
2017-11-19T02:49:43.838Z,5.25
2017-11-19T02:51:05.734Z,5.22
2017-11-19T02:52:27.466Z,5.28
2017-11-19T02:53:49.500Z,5.18
2017-11-19T02:55:11.838Z,5.21
2017-11-19T02:56:33.554Z,5.13
2017-11-19T02:57:54.988Z,5.1
2017-11-19T02:59:17.003Z,5
2017-11-19T03:00:38.436Z,5
2017-11-19T03:02:00.217Z,5.02
2017-11-19T03:03:21.941Z,4.99
2017-11-19T03:04:43.398Z,4.94
2017-11-19T03:06:05.106Z,4.97
2017-11-19T03:07:26.836Z,5.04
2017-11-19T03:08:48.587Z,5.12
2017-11-19T03:10:10.134Z,5.22
2017-11-19T03:11:31.568Z,5.25
2017-11-19T03:12:53.306Z,5.42
2017-11-19T03:14:15.027Z,5.49
2017-11-19T03:15:36.806Z,5.42
2017-11-19T03:16:58.186Z,5.4
2017-11-19T03:18:19.666Z,5.46
2017-11-19T03:19:41.707Z,5.43
2017-11-19T03:21:03.504Z,5.25
2017-11-19T03:22:24.928Z,5.25
2017-11-19T03:23:47.216Z,5.12
2017-11-19T03:25:08.955Z,5.02
2017-11-19T03:26:30.951Z,4.8
2017-11-19T03:27:52.671Z,4.73
2017-11-19T03:29:14.386Z,4.59
2017-11-19T03:30:35.837Z,4.5
2017-11-19T03:31:57.288Z,4.52
2017-11-19T03:33:19.245Z,4.42
2017-11-19T03:34:40.965Z,4.36
2017-11-19T03:36:02.419Z,4.4
2017-11-19T03:37:24.706Z,4.33
2017-11-19T03:38:46.456Z,4.32
2017-11-19T03:40:08.460Z,4.29
2017-11-19T03:41:29.628Z,4.23
2017-11-19T03:42:51.874Z,4.22
2017-11-19T03:44:13.589Z,4.4
2017-11-19T03:45:35.607Z,4.52
2017-11-19T03:46:57.319Z,4.52
2017-11-19T03:48:19.355Z,4.6
2017-11-19T03:49:41.437Z,4.6
2017-11-19T03:51:03.431Z,4.58
2017-11-19T03:52:25.438Z,4.48
2017-11-19T03:53:47.507Z,4.5
2017-11-19T03:55:08.673Z,4.37
2017-11-19T03:56:30.155Z,4.37
2017-11-19T03:57:51.887Z,4.52
2017-11-19T03:59:14.115Z,4.55
2017-11-19T04:00:36.107Z,4.66
2017-11-19T04:01:58.106Z,4.78
2017-11-19T04:03:19.836Z,4.82
2017-11-19T04:04:41.576Z,4.85
2017-11-19T04:06:03.570Z,4.99
2017-11-19T04:07:25.306Z,5.02
2017-11-19T04:08:47.298Z,5.06
2017-11-19T04:10:09.278Z,5.18
2017-11-19T04:11:31.529Z,5.12
2017-11-19T04:12:53.785Z,5.24
2017-11-19T04:14:15.493Z,5.21
2017-11-19T04:15:37.997Z,5.25
2017-11-19T04:16:59.427Z,5.25
2017-11-19T04:18:20.870Z,5.3
2017-11-19T04:19:42.321Z,5.31
2017-11-19T04:21:03.584Z,5.2
2017-11-19T04:22:25.616Z,5.22
2017-11-19T04:23:47.596Z,5.13
2017-11-19T04:25:08.767Z,5.03
2017-11-19T04:26:31.016Z,4.84
2017-11-19T04:27:53.037Z,4.82
2017-11-19T04:29:14.732Z,4.78
2017-11-19T04:30:36.715Z,4.7
2017-11-19T04:31:58.695Z,4.63
2017-11-19T04:33:20.419Z,4.72
2017-11-19T04:34:42.399Z,4.69
2017-11-19T04:36:04.525Z,4.62
2017-11-19T04:37:25.955Z,4.54
2017-11-19T04:38:47.533Z,4.65
2017-11-19T04:40:09.529Z,4.48
2017-11-19T04:41:31.516Z,4.5
2017-11-19T04:42:53.216Z,4.52
2017-11-19T04:44:14.939Z,4.48
2017-11-19T04:45:36.145Z,4.55
2017-11-19T04:46:58.200Z,4.51
2017-11-19T04:48:19.632Z,4.48
2017-11-19T04:49:41.726Z,4.54
2017-11-19T04:51:03.156Z,4.44
2017-11-19T04:52:25.175Z,4.48
2017-11-19T04:53:46.940Z,4.59
2017-11-19T04:55:08.670Z,4.62
2017-11-19T04:56:30.787Z,4.67
2017-11-19T04:57:52.580Z,4.77
2017-11-19T04:59:13.737Z,4.8
2017-11-19T05:00:35.249Z,4.86
2017-11-19T05:01:56.688Z,4.82
2017-11-19T05:03:18.390Z,4.82
2017-11-19T05:04:39.817Z,4.84
2017-11-19T05:06:01.546Z,4.72
2017-11-19T05:07:23.516Z,4.73
2017-11-19T05:08:44.809Z,4.65
2017-11-19T05:10:06.269Z,4.66
2017-11-19T05:11:28.255Z,4.59
2017-11-19T05:12:50.315Z,4.59
2017-11-19T05:14:12.049Z,4.6
2017-11-19T05:15:33.965Z,4.63
2017-11-19T05:16:55.980Z,4.58
2017-11-19T05:18:18.007Z,4.73
2017-11-19T05:19:39.735Z,4.8
2017-11-19T05:21:01.270Z,5.04
2017-11-19T05:22:22.734Z,5.13
2017-11-19T05:23:44.257Z,5.25
2017-11-19T05:25:06.256Z,5.3
2017-11-19T05:26:27.701Z,5.28
2017-11-19T05:27:48.845Z,5.28
2017-11-19T05:29:11.122Z,5.28
2017-11-19T05:30:33.100Z,5.21
2017-11-19T05:31:55.383Z,5.1
2017-11-19T05:33:17.376Z,5.13
2017-11-19T05:34:39.065Z,5.2
2017-11-19T05:36:01.326Z,5.3
2017-11-19T05:37:23.277Z,5.36
2017-11-19T05:38:45.017Z,5.28
2017-11-19T05:40:06.455Z,5.3
2017-11-19T05:41:28.235Z,5.25
2017-11-19T05:42:50.026Z,5.24
2017-11-19T05:44:11.782Z,5.2
2017-11-19T05:45:32.942Z,5.12
2017-11-19T05:46:54.687Z,5.13
2017-11-19T05:48:16.682Z,5.06
2017-11-19T05:49:38.941Z,5
2017-11-19T05:51:00.966Z,4.88
2017-11-19T05:52:22.966Z,4.89
2017-11-19T05:53:45.239Z,4.77
2017-11-19T05:55:07.041Z,4.78
2017-11-19T05:56:28.485Z,4.69
2017-11-19T05:57:50.196Z,4.7
2017-11-19T05:59:11.912Z,4.66
2017-11-19T06:00:34.033Z,4.62
2017-11-19T06:01:56.026Z,4.8
2017-11-19T06:03:17.829Z,4.78
2017-11-19T06:04:39.534Z,4.69
2017-11-19T06:06:00.966Z,4.86
2017-11-19T06:07:22.123Z,4.86
2017-11-19T06:08:44.185Z,4.88
2017-11-19T06:10:06.512Z,4.75
2017-11-19T06:11:28.225Z,4.85
2017-11-19T06:12:50.096Z,4.89
2017-11-19T06:14:12.377Z,5.03
2017-11-19T06:15:33.818Z,5.12
2017-11-19T06:16:56.105Z,5.25
2017-11-19T06:18:18.130Z,5.28
2017-11-19T06:19:40.171Z,5.36
2017-11-19T06:21:01.607Z,5.46
2017-11-19T06:22:23.595Z,5.42
2017-11-19T06:23:45.586Z,5.49
2017-11-19T06:25:07.026Z,5.42
2017-11-19T06:26:29.334Z,5.56
2017-11-19T06:27:51.039Z,5.43
2017-11-19T06:29:12.471Z,5.42
2017-11-19T06:30:33.912Z,5.33
2017-11-19T06:31:55.616Z,5.24
2017-11-19T06:33:18.043Z,5.15
2017-11-19T06:34:40.021Z,5.04
2017-11-19T06:36:02.006Z,5.03
2017-11-19T06:37:23.435Z,5
2017-11-19T06:38:45.469Z,5.07
2017-11-19T06:40:07.724Z,5.13
2017-11-19T06:41:30.077Z,5.12
2017-11-19T06:42:52.630Z,5.21
2017-11-19T06:44:14.460Z,5.21
2017-11-19T06:45:36.022Z,5.21
2017-11-19T06:46:58.011Z,5.27
2017-11-19T06:48:19.727Z,5.35
2017-11-19T06:49:42.125Z,5.35
2017-11-19T06:51:03.887Z,5.48
2017-11-19T06:52:26.175Z,5.46
2017-11-19T06:53:47.624Z,5.57
2017-11-19T06:55:09.604Z,5.57
2017-11-19T06:56:31.426Z,5.65
2017-11-19T06:57:53.393Z,5.64
2017-11-19T06:59:14.914Z,5.61
2017-11-19T07:00:36.634Z,5.53
2017-11-19T07:01:58.649Z,5.64
2017-11-19T07:03:20.916Z,5.65
2017-11-19T07:04:42.905Z,5.68
2017-11-19T07:06:04.363Z,5.65
2017-11-19T07:07:26.075Z,5.64
2017-11-19T07:08:47.878Z,5.6
2017-11-19T07:10:09.908Z,5.6
2017-11-19T07:11:31.905Z,5.61
2017-11-19T07:12:53.470Z,5.63
2017-11-19T07:14:15.224Z,5.61
2017-11-19T07:15:36.927Z,5.64
2017-11-19T07:16:59.275Z,5.71
2017-11-19T07:18:20.986Z,5.76
2017-11-19T07:19:42.997Z,5.85
2017-11-19T07:21:04.995Z,5.86
2017-11-19T07:22:27.001Z,5.9
2017-11-19T07:23:48.736Z,6.01
2017-11-19T07:25:10.738Z,6.11
2017-11-19T07:26:32.457Z,6.15
2017-11-19T07:27:54.468Z,6.06
2017-11-19T07:29:16.546Z,5.99
2017-11-19T07:30:38.876Z,5.93
2017-11-19T07:32:00.876Z,5.82
2017-11-19T07:33:22.585Z,5.76
2017-11-19T07:34:44.034Z,5.76
2017-11-19T07:36:05.765Z,5.74
2017-11-19T07:37:27.924Z,5.81
2017-11-19T07:38:49.954Z,5.82
2017-11-19T07:40:11.695Z,5.86
2017-11-19T07:41:33.126Z,5.81
2017-11-19T07:42:54.845Z,5.82
2017-11-19T07:44:16.565Z,5.78
2017-11-19T07:45:38.834Z,5.76
2017-11-19T07:47:00.588Z,5.78
2017-11-19T07:48:22.323Z,5.9
2017-11-19T07:49:44.340Z,5.93
2017-11-19T07:51:06.346Z,6
2017-11-19T07:52:27.883Z,5.96
2017-11-19T07:53:49.982Z,6.09
2017-11-19T07:55:11.726Z,6.11
2017-11-19T07:56:33.526Z,6.11
2017-11-19T07:57:55.542Z,6.4
2017-11-19T07:59:17.916Z,6.51
2017-11-19T08:00:39.375Z,6.58
2017-11-19T08:02:01.387Z,6.58
2017-11-19T08:03:23.377Z,6.74
2017-11-19T08:04:45.374Z,6.81
2017-11-19T08:06:07.094Z,6.87
2017-11-19T08:07:29.373Z,6.89
2017-11-19T08:08:50.574Z,6.79
2017-11-19T08:10:12.865Z,6.77
2017-11-19T08:11:34.843Z,6.64
2017-11-19T08:12:57.107Z,6.61
2017-11-19T08:14:19.146Z,6.41
2017-11-19T08:15:41.161Z,6.36
2017-11-19T08:17:02.896Z,6.19
2017-11-19T08:18:24.436Z,6.22
2017-11-19T08:19:45.885Z,6.17
2017-11-19T08:21:07.335Z,6.17
2017-11-19T08:22:28.799Z,6.06
2017-11-19T08:23:50.777Z,6.06
2017-11-19T08:25:17.026Z,6.15
2017-11-19T08:26:38.770Z,6.17
2017-11-19T08:28:00.495Z,6.19
2017-11-19T08:29:22.259Z,6.17
2017-11-19T08:30:44.281Z,6.27
2017-11-19T08:32:06.578Z,6.37
2017-11-19T08:33:28.702Z,6.41
2017-11-19T08:34:50.725Z,6.61
2017-11-19T08:36:12.744Z,6.84
2017-11-19T08:37:34.503Z,7.15
2017-11-19T08:38:56.505Z,7.4
2017-11-19T08:40:17.976Z,7.64
2017-11-19T08:41:40.258Z,7.97
2017-11-19T08:43:02.593Z,7.93
2017-11-19T08:44:24.425Z,7.95
2017-11-19T08:45:46.742Z,7.95
2017-11-19T08:47:08.585Z,8.02
2017-11-19T08:48:30.371Z,8.02
2017-11-19T08:49:52.069Z,8.15
2017-11-19T08:51:14.355Z,8.05
2017-11-19T08:52:35.795Z,7.8
2017-11-19T08:53:58.175Z,7.71
2017-11-19T08:55:20.165Z,7.58
2017-11-19T08:56:42.224Z,7.58
2017-11-19T08:58:04.376Z,7.43
2017-11-19T08:59:26.356Z,7.37
2017-11-19T09:00:48.703Z,7.37
2017-11-19T09:02:10.424Z,7.23
2017-11-19T09:03:32.421Z,7.17
2017-11-19T09:04:54.423Z,7.09
2017-11-19T09:06:16.922Z,7.06
2017-11-19T09:07:38.652Z,6.99
2017-11-19T09:09:00.681Z,6.97
2017-11-19T09:10:22.434Z,6.95
2017-11-19T09:11:44.239Z,6.95
2017-11-19T09:13:06.499Z,6.94
2017-11-19T09:14:28.505Z,7.03
2017-11-19T09:15:50.528Z,6.97
2017-11-19T09:17:12.817Z,7.09
2017-11-19T09:18:34.583Z,7.09
2017-11-19T09:19:56.989Z,7.2
2017-11-19T09:21:19.012Z,7.13
2017-11-19T09:22:41.036Z,7.39
2017-11-19T09:24:03.038Z,7.55
2017-11-19T09:25:26.706Z,7.77
2017-11-19T09:26:50.115Z,7.79
2017-11-19T09:28:11.946Z,8.05
2017-11-19T09:29:33.961Z,8.2
2017-11-19T09:30:56.292Z,8.11
2017-11-19T09:32:17.994Z,8
2017-11-19T09:33:40.027Z,7.92
2017-11-19T09:35:01.206Z,7.69
2017-11-19T09:36:22.647Z,7.57
2017-11-19T09:37:44.524Z,7.52
2017-11-19T09:39:06.236Z,7.43
2017-11-19T09:40:27.982Z,7.35
2017-11-19T09:41:49.155Z,7.25
2017-11-19T09:43:10.936Z,7.16
2017-11-19T09:44:32.715Z,7.16
2017-11-19T09:45:54.440Z,7.23
2017-11-19T09:47:16.462Z,7.16
2017-11-19T09:48:38.732Z,7.17
2017-11-19T09:50:00.768Z,7.27
2017-11-19T09:51:23.059Z,7.46
2017-11-19T09:52:45.371Z,7.67
2017-11-19T09:54:07.415Z,8.07
2017-11-19T09:55:29.718Z,8.2
2017-11-19T09:56:51.753Z,8.29
2017-11-19T09:58:14.056Z,8.3
2017-11-19T09:59:35.838Z,8.28
2017-11-19T10:00:57.905Z,8.3
2017-11-19T10:02:19.384Z,8.29
2017-11-19T10:03:40.874Z,8.16
2017-11-19T10:05:02.774Z,8.16
2017-11-19T10:06:24.822Z,8.33
2017-11-19T10:07:46.889Z,8.55
2017-11-19T10:09:09.000Z,8.73
2017-11-19T10:10:30.487Z,8.8
2017-11-19T10:11:51.969Z,8.95
2017-11-19T10:13:14.015Z,8.96
2017-11-19T10:14:35.494Z,9.02
2017-11-19T10:15:57.285Z,9.02
2017-11-19T10:17:19.154Z,8.92
2017-11-19T10:18:41.135Z,8.83
2017-11-19T10:20:02.881Z,8.66
2017-11-19T10:21:25.231Z,8.55
2017-11-19T10:22:47.514Z,8.52
2017-11-19T10:24:09.878Z,8.58
2017-11-19T10:25:31.714Z,8.47
2017-11-19T10:26:53.212Z,8.45
2017-11-19T10:28:15.257Z,8.55
2017-11-19T10:29:37.266Z,8.74
2017-11-19T10:30:59.319Z,8.98
2017-11-19T10:32:21.595Z,9.39
2017-11-19T10:33:43.892Z,9.71
2017-11-19T10:35:05.908Z,10.14
2017-11-19T10:36:27.675Z,10.45
2017-11-19T10:37:49.719Z,10.66
2017-11-19T10:39:11.207Z,10.85
2017-11-19T10:40:33.484Z,11.21
2017-11-19T10:41:55.348Z,11.19
2017-11-19T10:43:17.418Z,10.88
2017-11-19T10:44:39.571Z,10.42
2017-11-19T10:46:01.608Z,9.89
2017-11-19T10:47:23.632Z,9.6
2017-11-19T10:48:45.841Z,9.24
2017-11-19T10:50:08.196Z,8.89
2017-11-19T10:51:30.717Z,8.71
2017-11-19T10:52:53.053Z,8.38
2017-11-19T10:54:15.344Z,8.18
2017-11-19T10:55:37.374Z,8.2
2017-11-19T10:56:59.400Z,8.11
2017-11-19T10:58:21.549Z,8.04
2017-11-19T10:59:43.566Z,7.89
2017-11-19T11:01:05.645Z,7.8
2017-11-19T11:02:27.495Z,7.82
2017-11-19T11:03:49.488Z,7.82
2017-11-19T11:05:11.820Z,7.69
2017-11-19T11:06:34.407Z,7.74
2017-11-19T11:07:56.445Z,7.68
2017-11-19T11:09:18.219Z,7.75
2017-11-19T11:10:40.303Z,7.68
2017-11-19T11:12:02.066Z,7.64
2017-11-19T11:13:24.370Z,7.69
2017-11-19T11:14:46.705Z,7.71
2017-11-19T11:16:09.021Z,7.64
2017-11-19T11:17:31.113Z,7.69
2017-11-19T11:18:52.932Z,7.68
2017-11-19T11:20:15.269Z,7.71
2017-11-19T11:21:37.677Z,7.74
2017-11-19T11:22:59.775Z,7.79
2017-11-19T11:24:21.598Z,7.92
2017-11-19T11:25:43.928Z,7.98
2017-11-19T11:27:05.948Z,7.9
2017-11-19T11:28:27.592Z,7.83
2017-11-19T11:29:49.686Z,7.79
2017-11-19T11:31:11.745Z,7.69
2017-11-19T11:32:34.234Z,7.74
2017-11-19T11:33:55.703Z,7.58
2017-11-19T11:35:18.008Z,7.57
2017-11-19T11:36:40.148Z,7.5
2017-11-19T11:38:02.167Z,7.48
2017-11-19T11:39:24.181Z,7.49
2017-11-19T11:40:46.034Z,7.35
2017-11-19T11:42:08.106Z,7.48
2017-11-19T11:43:29.886Z,7.46
2017-11-19T11:44:52.272Z,7.55
2017-11-19T11:46:14.293Z,7.55
2017-11-19T11:47:36.044Z,7.57
2017-11-19T11:48:58.315Z,7.58
2017-11-19T11:50:20.335Z,7.42
2017-11-19T11:51:42.371Z,7.43
2017-11-19T11:53:04.477Z,7.46
2017-11-19T11:54:26.277Z,7.39
2017-11-19T11:55:48.575Z,7.28
2017-11-19T11:57:10.623Z,7.28
2017-11-19T11:58:32.752Z,7.23
2017-11-19T11:59:55.092Z,7.13
2017-11-19T12:01:17.166Z,7.3
2017-11-19T12:02:39.758Z,7.2
2017-11-19T12:04:02.105Z,7.42
2017-11-19T12:05:24.395Z,7.64
2017-11-19T12:06:46.426Z,7.89
2017-11-19T12:08:08.697Z,8.1
2017-11-19T12:09:30.581Z,8.16
2017-11-19T12:10:52.626Z,8.66
2017-11-19T12:12:15.205Z,8.98
2017-11-19T12:13:36.684Z,9.28
2017-11-19T12:14:58.447Z,9.6
2017-11-19T12:16:20.486Z,9.61
2017-11-19T12:17:42.782Z,9.39
2017-11-19T12:19:04.589Z,9.15
2017-11-19T12:20:26.894Z,8.96
2017-11-19T12:21:49.266Z,8.8
2017-11-19T12:23:11.324Z,8.52
2017-11-19T12:24:33.639Z,8.29
2017-11-19T12:25:55.680Z,8.18
2017-11-19T12:27:17.743Z,8
2017-11-19T12:28:39.234Z,7.87
2017-11-19T12:30:01.009Z,7.86
2017-11-19T12:31:22.456Z,7.68
2017-11-19T12:32:44.214Z,7.74
2017-11-19T12:34:06.268Z,7.63
2017-11-19T12:35:28.298Z,7.67
2017-11-19T12:36:50.604Z,7.63
2017-11-19T12:38:12.507Z,7.69
2017-11-19T12:39:34.535Z,7.74
2017-11-19T12:40:56.283Z,7.68
2017-11-19T12:42:18.006Z,7.8
2017-11-19T12:43:40.049Z,7.8
2017-11-19T12:45:01.835Z,7.68
2017-11-19T12:46:24.037Z,7.67
2017-11-19T12:47:45.314Z,7.75
2017-11-19T12:49:07.861Z,7.69
2017-11-19T12:50:29.622Z,7.64
2017-11-19T12:51:51.413Z,7.72
2017-11-19T12:53:13.441Z,7.64
2017-11-19T12:54:35.734Z,7.61
2017-11-19T12:55:58.034Z,7.64
2017-11-19T12:57:20.328Z,7.75
2017-11-19T12:58:42.370Z,7.64
2017-11-19T13:00:04.670Z,7.77
2017-11-19T13:01:26.695Z,7.63
2017-11-19T13:02:49.035Z,7.58
2017-11-19T13:04:10.495Z,7.57
2017-11-19T13:05:32.325Z,7.61
2017-11-19T13:06:54.417Z,7.63
2017-11-19T13:08:16.822Z,7.61
2017-11-19T13:09:38.866Z,7.69
2017-11-19T13:11:01.195Z,7.9
2017-11-19T13:12:23.219Z,7.95
2017-11-19T13:13:45.532Z,8.08
2017-11-19T13:15:07.814Z,8.12
2017-11-19T13:16:29.565Z,8.34
2017-11-19T13:17:51.859Z,8.47
2017-11-19T13:19:13.925Z,8.65
2017-11-19T13:20:36.363Z,8.76
2017-11-19T13:21:58.516Z,8.81
2017-11-19T13:23:20.833Z,8.87
2017-11-19T13:24:42.588Z,8.79
2017-11-19T13:26:04.905Z,8.79
2017-11-19T13:27:27.015Z,8.74
2017-11-19T13:28:49.329Z,8.73
2017-11-19T13:30:11.107Z,8.71
2017-11-19T13:31:32.861Z,8.52
2017-11-19T13:32:54.611Z,8.58
2017-11-19T13:34:16.726Z,8.55
2017-11-19T13:35:39.052Z,8.56
2017-11-19T13:37:01.371Z,8.56
2017-11-19T13:38:23.386Z,8.53
2017-11-19T13:39:45.352Z,8.56
2017-11-19T13:41:07.112Z,8.59
2017-11-19T13:42:28.595Z,8.52
2017-11-19T13:43:50.639Z,8.37
2017-11-19T13:45:12.397Z,8.11
2017-11-19T13:46:34.150Z,7.89
2017-11-19T13:47:56.505Z,7.74
2017-11-19T13:49:18.497Z,7.64
2017-11-19T13:50:40.536Z,7.49
2017-11-19T13:52:02.267Z,7.43
2017-11-19T13:53:24.607Z,7.45
2017-11-19T13:54:46.653Z,7.43
2017-11-19T13:56:08.820Z,7.45
2017-11-19T13:57:31.449Z,7.4
2017-11-19T13:58:53.496Z,7.42
2017-11-19T14:00:15.569Z,7.63
2017-11-19T14:01:37.888Z,7.61
2017-11-19T14:02:59.645Z,7.69
2017-11-19T14:04:21.735Z,7.67
2017-11-19T14:05:43.469Z,7.69
2017-11-19T14:07:05.961Z,7.75
2017-11-19T14:08:28.254Z,7.85
2017-11-19T14:09:50.267Z,7.82
2017-11-19T14:11:12.374Z,7.8
2017-11-19T14:12:34.644Z,7.71
2017-11-19T14:13:56.729Z,7.67
2017-11-19T14:15:18.748Z,7.71
2017-11-19T14:16:41.087Z,7.79
2017-11-19T14:18:03.213Z,7.89
2017-11-19T14:19:24.965Z,8
2017-11-19T14:20:47.314Z,8.22
2017-11-19T14:22:09.324Z,8.28
2017-11-19T14:23:31.605Z,8.4
2017-11-19T14:24:53.615Z,8.47
2017-11-19T14:26:15.774Z,8.47
2017-11-19T14:27:37.879Z,8.52
2017-11-19T14:28:59.904Z,8.43
2017-11-19T14:30:22.046Z,8.53
2017-11-19T14:31:44.407Z,8.56
2017-11-19T14:33:06.480Z,8.68
2017-11-19T14:34:28.757Z,8.65
2017-11-19T14:35:50.898Z,8.73
2017-11-19T14:37:12.947Z,8.76
2017-11-19T14:38:35.216Z,8.68
2017-11-19T14:39:57.505Z,8.66
2017-11-19T14:41:18.978Z,8.53
2017-11-19T14:42:41.026Z,8.48
2017-11-19T14:44:03.034Z,8.44
2017-11-19T14:45:25.070Z,8.25
2017-11-19T14:46:47.374Z,8.28
2017-11-19T14:48:09.226Z,8.36
2017-11-19T14:49:31.283Z,8.28
2017-11-19T14:50:53.348Z,8.16
2017-11-19T14:52:15.500Z,8.18
2017-11-19T14:53:37.259Z,8.12
2017-11-19T14:54:59.271Z,8.1
2017-11-19T14:56:21.571Z,8.04
2017-11-19T14:57:43.478Z,8.07
2017-11-19T14:59:05.516Z,8.12
2017-11-19T15:00:27.609Z,8.16
2017-11-19T15:01:49.658Z,8.16
2017-11-19T15:03:11.984Z,8.2
2017-11-19T15:04:34.016Z,8.19
2017-11-19T15:05:56.478Z,8.12
2017-11-19T15:07:18.496Z,8.08
2017-11-19T15:08:40.664Z,8.16
2017-11-19T15:10:02.720Z,8.12
2017-11-19T15:11:24.755Z,8.04
2017-11-19T15:12:46.767Z,7.95
2017-11-19T15:14:08.784Z,7.93
2017-11-19T15:15:30.538Z,7.8
2017-11-19T15:16:52.843Z,7.79
2017-11-19T15:18:14.607Z,7.75
2017-11-19T15:19:36.363Z,7.71
2017-11-19T15:20:58.455Z,7.77
2017-11-19T15:22:20.349Z,7.64
2017-11-19T15:23:42.760Z,7.69
2017-11-19T15:25:04.786Z,7.74
2017-11-19T15:26:26.829Z,7.75
2017-11-19T15:27:48.576Z,7.82
2017-11-19T15:29:10.614Z,7.89
2017-11-19T15:30:32.641Z,7.79
2017-11-19T15:31:54.700Z,7.8
2017-11-19T15:33:17.217Z,7.69
2017-11-19T15:34:38.991Z,7.63
2017-11-19T15:36:01.072Z,7.6
2017-11-19T15:37:23.238Z,7.55
2017-11-19T15:38:45.248Z,7.45
2017-11-19T15:40:07.270Z,7.5
2017-11-19T15:41:29.299Z,7.43
2017-11-19T15:42:51.643Z,7.32
2017-11-19T15:44:14.044Z,7.31
2017-11-19T15:45:36.757Z,7.25
2017-11-19T15:46:59.060Z,7.17
2017-11-19T15:48:21.514Z,7.23
2017-11-19T15:49:43.866Z,7.16
2017-11-19T15:51:06.314Z,7.17
2017-11-19T15:52:28.338Z,7.28
2017-11-19T15:53:50.433Z,7.27
2017-11-19T15:55:12.633Z,7.3
2017-11-19T15:56:34.378Z,7.32
2017-11-19T15:57:56.414Z,7.35
2017-11-19T15:59:18.039Z,7.46
2017-11-19T16:00:40.187Z,7.46
2017-11-19T16:02:02.576Z,7.52
2017-11-19T16:03:24.493Z,7.4
2017-11-19T16:04:46.045Z,7.46
2017-11-19T16:06:08.366Z,7.46
2017-11-19T16:07:29.894Z,7.4
2017-11-19T16:08:52.227Z,7.49
2017-11-19T16:10:13.683Z,7.46
2017-11-19T16:11:35.808Z,7.58
2017-11-19T16:12:57.611Z,7.57
2017-11-19T16:14:19.655Z,7.49
2017-11-19T16:15:41.568Z,7.5
2017-11-19T16:17:03.785Z,7.42
2017-11-19T16:18:26.964Z,7.43
2017-11-19T16:19:49.049Z,7.35
2017-11-19T16:21:11.232Z,7.32
2017-11-19T16:22:33.299Z,7.28
2017-11-19T16:23:55.359Z,7.23
2017-11-19T16:25:17.269Z,7.28
2017-11-19T16:26:39.402Z,7.24
2017-11-19T16:28:00.878Z,7.27
2017-11-19T16:29:22.954Z,7.23
2017-11-19T16:30:47.077Z,7.23
2017-11-19T16:32:10.094Z,7.17
2017-11-19T16:33:34.218Z,7.13
2017-11-19T16:34:56.622Z,7.2
2017-11-19T16:36:18.414Z,7.25
2017-11-19T16:37:40.188Z,7.16
2017-11-19T16:39:02.550Z,7.13
2017-11-19T16:40:24.380Z,7.16
2017-11-19T16:41:46.150Z,7.13
2017-11-19T16:43:08.176Z,7.2
2017-11-19T16:44:30.211Z,7.06
2017-11-19T16:45:52.576Z,7.09
2017-11-19T16:47:14.425Z,7.09
2017-11-19T16:48:36.550Z,7.06
2017-11-19T16:49:58.658Z,7.15
2017-11-19T16:51:20.675Z,7.2
2017-11-19T16:52:42.976Z,7.07
2017-11-19T16:54:05.244Z,6.99
2017-11-19T16:55:27.319Z,7.05
2017-11-19T16:56:49.676Z,7.02
2017-11-19T16:58:11.700Z,6.95
2017-11-19T16:59:34.012Z,6.95
2017-11-19T17:00:56.336Z,6.79
2017-11-19T17:02:18.369Z,6.85
2017-11-19T17:03:40.696Z,6.88
2017-11-19T17:05:02.625Z,6.92
2017-11-19T17:06:24.666Z,6.85
2017-11-19T17:07:46.739Z,6.88
2017-11-19T17:09:08.527Z,6.91
2017-11-19T17:10:30.300Z,6.85
2017-11-19T17:11:52.424Z,6.8
2017-11-19T17:13:14.793Z,6.87
2017-11-19T17:14:36.842Z,6.76
2017-11-19T17:15:59.185Z,6.85
2017-11-19T17:17:20.961Z,6.81
2017-11-19T17:18:43.010Z,6.76
2017-11-19T17:20:05.432Z,6.76
2017-11-19T17:21:27.458Z,6.7
2017-11-19T17:22:49.539Z,6.58
2017-11-19T17:24:11.669Z,6.59
2017-11-19T17:25:33.518Z,6.52
2017-11-19T17:26:55.582Z,6.51
2017-11-19T17:28:17.376Z,6.64
2017-11-19T17:29:39.505Z,6.58
2017-11-19T17:31:01.611Z,6.66
2017-11-19T17:32:23.272Z,6.62
2017-11-19T17:33:45.057Z,6.62
2017-11-19T17:35:07.368Z,6.71
2017-11-19T17:36:29.755Z,6.71
2017-11-19T17:37:51.278Z,6.74
2017-11-19T17:39:13.026Z,6.74
2017-11-19T17:40:35.069Z,6.84
2017-11-19T17:41:57.193Z,6.84
2017-11-19T17:43:19.217Z,6.84
2017-11-19T17:44:41.304Z,6.87
2017-11-19T17:46:03.403Z,6.87
2017-11-19T17:47:25.740Z,6.8
2017-11-19T17:48:48.331Z,6.84
2017-11-19T17:50:09.905Z,6.81
2017-11-19T17:51:32.240Z,6.87
2017-11-19T17:52:54.264Z,6.84
2017-11-19T17:54:15.734Z,6.8
2017-11-19T17:55:38.044Z,6.81
2017-11-19T17:56:59.830Z,6.84
2017-11-19T17:58:21.597Z,6.84
2017-11-19T17:59:43.628Z,6.73
2017-11-19T18:01:05.486Z,6.77
2017-11-19T18:02:27.889Z,6.8
2017-11-19T18:03:49.858Z,6.77
2017-11-19T18:05:12.263Z,6.85
2017-11-19T18:06:34.061Z,6.81
2017-11-19T18:07:56.372Z,6.88
2017-11-19T18:09:17.807Z,6.88
2017-11-19T18:10:40.507Z,6.84
2017-11-19T18:12:02.869Z,6.81
2017-11-19T18:13:25.009Z,6.81
2017-11-19T18:14:47.394Z,6.85